Pagrindinis puslapis
METAR-TAF:

METAR-TAF

Oro uostai :

Marianhamina, Suomija

platuma: 60-07N, ilguma: 019-54E, Aukštis: 6 m

Dabartinis oras

Ataskaita buvo paskelbta 40 minutes, ne 12:20 UTC
Vėjas 7 kt iš Šiaurės Rytų
Temperatūra -3°C
Drėgmė 74%
Slėgis 991 hPa
Matomumas 10 km arba daugiau
nėra debesų žemiau 1500 m ir nėra kamuolinių lietaus debesų

METAR: EFMA 021220Z AUTO 04007KT CAVOK M03/M07 Q0991

Laikas: 15:00 (13:00 UTC)

Prognozė

Ataskaita buvo paskelbta 1 valandą ir 38 minutes, ne 11:22 UTC
Prognozė galioja nuo 02 metu 12 UTC su 02 metu 21 UTC
Vėjas 9 kt iš Rytų/Šiaurės Rytų
Matomumas 10 km arba daugiau
nėra debesų žemiau 1500 m ir nėra kamuolinių lietaus debesų

TAF: EFMA 021122Z 0212/0221 06009KT CAVOK

Orai ataskaitas ir orų prognozės (METAR, TAF).

turimą stotys yra geltonos ir raudonos taškus žemėlapyje.

Perkelti pele per norėdami pamatyti stoties vardą.

Tada spustelėkite, norėdami matyti oro stebėjimo ir prognozės.

Norėdami pakeisti žemėlapį: spustelėkite ant žalios mygtukų su juodo kryžiaus žemyn,; žalią mygtuką su brūkšneliu, jei norite nutolinti; arba žalių rodyklių gretimoms žemėlapius.


METAR-TAF: